createdAt,value
2023-12-26T00:01:55.798Z,96650.88
2023-12-26T00:06:52.144Z,96645.69
2023-12-26T00:09:20.405Z,96637.94
2023-12-26T00:11:49.803Z,96637.91
2023-12-26T00:14:18.804Z,96635.06
2023-12-26T00:16:46.793Z,96632.69
2023-12-26T00:19:14.908Z,96628.78
2023-12-26T00:21:42.930Z,96625.09
2023-12-26T00:24:10.953Z,96628.38
2023-12-26T00:26:40.966Z,96632.16
2023-12-26T00:29:10.898Z,96627.81
2023-12-26T00:31:41.342Z,96620.44
2023-12-26T00:34:10.496Z,96627.47
2023-12-26T00:36:38.564Z,96626.69
2023-12-26T00:39:07.561Z,96623.72
2023-12-26T00:41:36.972Z,96626.47
2023-12-26T00:44:05.413Z,96621.56
2023-12-26T00:46:35.016Z,96619.53
2023-12-26T00:49:03.270Z,96617.13
2023-12-26T00:51:32.019Z,96617.72
2023-12-26T00:54:00.073Z,96615.91
2023-12-26T00:56:29.443Z,96621.56
2023-12-26T00:58:57.547Z,96619.19
2023-12-26T01:01:26.329Z,96609.84
2023-12-26T01:03:57.642Z,96615.97
2023-12-26T01:06:26.973Z,96610.63
2023-12-26T01:08:55.946Z,96612.81
2023-12-26T01:11:23.969Z,96613.16
2023-12-26T01:13:51.997Z,96618.16
2023-12-26T01:16:20.860Z,96618.72
2023-12-26T01:18:48.969Z,96617.63
2023-12-26T01:21:18.414Z,96603.25
2023-12-26T01:23:46.437Z,96611.09
2023-12-26T01:26:16.486Z,96612.47
2023-12-26T01:28:44.468Z,96613.28
2023-12-26T01:31:12.913Z,96621.56
2023-12-26T01:33:41.132Z,96613.75
2023-12-26T01:36:09.530Z,96614.88
2023-12-26T01:38:38.892Z,96611.94
2023-12-26T01:41:06.895Z,96612.75
2023-12-26T01:43:34.867Z,96618.81
2023-12-26T01:46:04.522Z,96609.28
2023-12-26T01:48:33.092Z,96623.66
2023-12-26T01:51:02.426Z,96624.16
2023-12-26T01:53:30.497Z,96628.66
2023-12-26T01:56:00.395Z,96623.25
2023-12-26T01:58:28.419Z,96623.50
2023-12-26T02:00:56.759Z,96622.97
2023-12-26T02:03:24.900Z,96628.59
2023-12-26T02:05:53.074Z,96625.09
2023-12-26T02:08:21.614Z,96620.88
2023-12-26T02:10:50.094Z,96624.78
2023-12-26T02:13:19.739Z,96610.19
2023-12-26T02:15:48.429Z,96605.34
2023-12-26T02:18:16.576Z,96613.94
2023-12-26T02:20:44.597Z,96611.44
2023-12-26T02:23:12.871Z,96605.81
2023-12-26T02:25:42.209Z,96602.00
2023-12-26T02:28:10.692Z,96608.94
2023-12-26T02:30:40.223Z,96596.59
2023-12-26T02:33:08.715Z,96596.59
2023-12-26T02:35:36.909Z,96598.00
2023-12-26T02:38:05.655Z,96597.47
2023-12-26T02:40:33.663Z,96602.13
2023-12-26T02:43:03.254Z,96598.13
2023-12-26T02:45:31.209Z,96602.06
2023-12-26T02:47:59.336Z,96598.41
2023-12-26T02:50:27.445Z,96604.94
2023-12-26T02:52:55.735Z,96606.44
2023-12-26T02:55:23.850Z,96605.91
2023-12-26T02:57:51.917Z,96606.13
2023-12-26T03:00:22.545Z,96601.97
2023-12-26T03:02:50.823Z,96604.09
2023-12-26T03:05:18.996Z,96603.91
2023-12-26T03:07:48.710Z,96603.34
2023-12-26T03:10:16.857Z,96601.34
2023-12-26T03:12:44.875Z,96606.59
2023-12-26T03:15:13.442Z,96606.84
2023-12-26T03:17:42.833Z,96611.31
2023-12-26T03:20:13.191Z,96610.81
2023-12-26T03:22:42.213Z,96612.72
2023-12-26T03:25:10.585Z,96614.03
2023-12-26T03:27:38.572Z,96612.19
2023-12-26T03:30:09.054Z,96612.38
2023-12-26T03:32:37.304Z,96615.03
2023-12-26T03:35:07.518Z,96609.72
2023-12-26T03:37:35.516Z,96612.38
2023-12-26T03:40:03.991Z,96612.91
2023-12-26T03:42:33.112Z,96619.84
2023-12-26T03:45:01.765Z,96618.25
2023-12-26T03:47:30.256Z,96617.44
2023-12-26T03:49:58.515Z,96609.03
2023-12-26T03:52:27.840Z,96605.28
2023-12-26T03:54:58.349Z,96606.34
2023-12-26T03:57:26.507Z,96611.22
2023-12-26T03:59:54.443Z,96604.00
2023-12-26T04:02:22.472Z,96604.31
2023-12-26T04:04:51.349Z,96613.63
2023-12-26T04:07:19.663Z,96604.56
2023-12-26T04:09:49.121Z,96612.03
2023-12-26T04:12:17.235Z,96616.56
2023-12-26T04:14:45.238Z,96610.16
2023-12-26T04:17:13.206Z,96610.13
2023-12-26T04:19:41.629Z,96609.03
2023-12-26T04:22:10.652Z,96606.88
2023-12-26T04:24:38.920Z,96608.47
2023-12-26T04:27:09.056Z,96610.91
2023-12-26T04:29:37.092Z,96611.97
2023-12-26T04:32:05.708Z,96607.44
2023-12-26T04:34:34.072Z,96608.25
2023-12-26T04:37:02.180Z,96620.25
2023-12-26T04:39:30.356Z,96615.19
2023-12-26T04:41:59.226Z,96616.28
2023-12-26T04:44:29.169Z,96628.84
2023-12-26T04:46:57.208Z,96628.28
2023-12-26T04:49:26.070Z,96638.16
2023-12-26T04:51:54.456Z,96638.94
2023-12-26T04:54:22.637Z,96641.06
2023-12-26T04:56:51.118Z,96645.88
2023-12-26T04:59:19.122Z,96643.72
2023-12-26T05:01:48.540Z,96651.22
2023-12-26T05:04:16.588Z,96650.66
2023-12-26T05:06:44.700Z,96659.22
2023-12-26T05:09:12.752Z,96658.16
2023-12-26T05:11:40.911Z,96662.91
2023-12-26T05:14:09.204Z,96668.00
2023-12-26T05:16:43.946Z,96674.13
2023-12-26T05:19:14.901Z,96682.66
2023-12-26T05:21:43.029Z,96687.50
2023-12-26T05:24:11.020Z,96689.63
2023-12-26T05:26:41.915Z,96695.50
2023-12-26T05:29:10.135Z,96713.09
2023-12-26T05:31:39.503Z,96713.09
2023-12-26T05:34:10.208Z,96714.69
2023-12-26T05:36:39.921Z,96716.56
2023-12-26T05:39:09.256Z,96732.81
2023-12-26T05:41:38.166Z,96731.25
2023-12-26T05:44:06.608Z,96734.41
2023-12-26T05:46:34.738Z,96737.88
2023-12-26T05:49:03.257Z,96741.38
2023-12-26T05:51:31.571Z,96746.13
2023-12-26T05:54:00.884Z,96747.75
2023-12-26T05:56:28.941Z,96741.59
2023-12-26T05:58:57.570Z,96753.63
2023-12-26T06:01:25.695Z,96756.31
2023-12-26T06:03:53.719Z,96753.34
2023-12-26T06:06:22.510Z,96753.88
2023-12-26T06:08:50.738Z,96753.91
2023-12-26T06:11:20.465Z,96760.03
2023-12-26T06:13:48.446Z,96757.38
2023-12-26T06:16:17.506Z,96765.38
2023-12-26T06:18:45.713Z,96757.38
2023-12-26T06:21:13.859Z,96765.91
2023-12-26T06:23:42.867Z,96768.03
2023-12-26T06:26:10.943Z,96771.25
2023-12-26T06:28:40.310Z,96776.84
2023-12-26T06:31:15.132Z,96780.84
2023-12-26T06:33:43.838Z,96781.38
2023-12-26T06:36:12.186Z,96784.59
2023-12-26T06:38:40.394Z,96801.91
2023-12-26T06:41:09.231Z,96798.44
2023-12-26T06:43:37.207Z,96791.50
2023-12-26T06:46:07.019Z,96797.91
2023-12-26T06:48:38.167Z,96801.63
2023-12-26T06:51:07.075Z,96809.09
2023-12-26T06:53:35.089Z,96812.81
2023-12-26T06:56:06.156Z,96822.94
2023-12-26T06:58:34.201Z,96825.63
2023-12-26T07:01:02.899Z,96831.22
2023-12-26T07:03:32.282Z,96827.75
2023-12-26T07:06:00.752Z,96830.94
2023-12-26T07:08:29.033Z,96845.06
2023-12-26T07:10:57.354Z,96842.94
2023-12-26T07:13:25.404Z,96846.13
2023-12-26T07:15:53.846Z,96846.94
2023-12-26T07:18:22.049Z,96845.31
2023-12-26T07:20:51.510Z,96851.22
2023-12-26T07:23:19.485Z,96852.25
2023-12-26T07:25:47.552Z,96856.28
2023-12-26T07:28:18.336Z,96860.25
2023-12-26T07:30:46.590Z,96849.59
2023-12-26T07:33:14.777Z,96853.59
2023-12-26T07:35:42.871Z,96848.28
2023-12-26T07:38:12.222Z,96848.00
2023-12-26T07:40:40.927Z,96851.72
2023-12-26T07:43:09.939Z,96858.09
2023-12-26T07:45:37.936Z,96863.75
2023-12-26T07:48:06.976Z,96860.28
2023-12-26T07:50:35.120Z,96868.53
2023-12-26T07:53:03.164Z,96878.66
2023-12-26T07:55:33.386Z,96883.19
2023-12-26T07:58:01.353Z,96891.19
2023-12-26T08:00:29.538Z,96892.22
2023-12-26T08:02:58.255Z,96891.69
2023-12-26T08:05:26.586Z,96885.81
2023-12-26T08:07:54.544Z,96891.38
2023-12-26T08:10:25.748Z,96900.72
2023-12-26T08:12:55.323Z,96901.22
2023-12-26T08:15:24.174Z,96901.47
2023-12-26T08:17:53.191Z,96919.34
2023-12-26T08:20:21.311Z,96921.47
2023-12-26T08:22:49.262Z,96918.25
2023-12-26T08:25:19.289Z,96923.06
2023-12-26T08:27:47.874Z,96926.28
2023-12-26T08:30:17.466Z,96932.41
2023-12-26T08:32:45.989Z,96931.84
2023-12-26T08:35:14.328Z,96936.66
2023-12-26T08:37:42.529Z,96938.53
2023-12-26T08:40:10.846Z,96936.38
2023-12-26T08:42:39.265Z,96931.59
2023-12-26T08:45:07.974Z,96937.72
2023-12-26T08:47:37.509Z,96938.78
2023-12-26T08:50:07.067Z,96933.16
2023-12-26T08:52:35.243Z,96947.59
2023-12-26T08:55:03.560Z,96949.19
2023-12-26T08:57:31.772Z,96945.94
2023-12-26T09:00:01.166Z,96953.69
2023-12-26T09:02:29.217Z,96951.28
2023-12-26T09:05:00.095Z,96962.75
2023-12-26T09:07:28.110Z,96959.03
2023-12-26T09:09:56.093Z,96975.84
2023-12-26T09:12:24.021Z,96968.63
2023-12-26T09:14:53.211Z,96977.44
2023-12-26T09:17:21.276Z,96978.50
2023-12-26T09:19:49.223Z,96976.63
2023-12-26T09:22:18.825Z,96981.72
2023-12-26T09:24:47.061Z,96980.66
2023-12-26T09:27:15.111Z,96982.22
2023-12-26T09:29:43.305Z,96989.16
2023-12-26T09:32:11.296Z,96993.16
2023-12-26T09:34:39.558Z,96994.75
2023-12-26T09:37:07.758Z,96993.41
2023-12-26T09:39:37.259Z,96998.75
2023-12-26T09:42:08.130Z,97001.38
2023-12-26T09:44:36.755Z,97004.53
2023-12-26T09:47:11.929Z,97012.50
2023-12-26T09:49:40.158Z,96998.06
2023-12-26T09:52:09.315Z,97004.22
2023-12-26T09:54:39.863Z,97002.31
2023-12-26T09:57:09.698Z,97003.38
2023-12-26T09:59:38.467Z,96998.28
2023-12-26T10:02:07.255Z,96996.94
2023-12-26T10:04:35.529Z,97000.16
2023-12-26T10:07:03.931Z,97002.25
2023-12-26T10:09:32.425Z,96999.84
2023-12-26T10:12:01.985Z,96990.47
2023-12-26T10:14:31.200Z,96996.38
2023-12-26T10:17:00.261Z,97003.06
2023-12-26T10:19:28.664Z,97004.66
2023-12-26T10:21:56.785Z,97003.06
2023-12-26T10:24:25.014Z,97012.41
2023-12-26T10:26:53.630Z,97011.03
2023-12-26T10:29:23.150Z,97005.69
2023-12-26T10:31:51.209Z,97015.06
2023-12-26T10:34:21.679Z,97007.53
2023-12-26T10:36:51.422Z,97010.75
2023-12-26T10:39:19.864Z,97006.19
2023-12-26T10:41:49.233Z,97019.03
2023-12-26T10:44:18.136Z,97023.03
2023-12-26T10:46:49.740Z,97019.84
2023-12-26T10:49:24.060Z,97017.13
2023-12-26T10:51:54.770Z,97022.47
2023-12-26T10:54:24.595Z,97019.81
2023-12-26T10:56:54.189Z,97015.53
2023-12-26T10:59:22.935Z,97023.25
2023-12-26T11:01:52.050Z,97017.63
2023-12-26T11:04:19.453Z,97023.25
2023-12-26T11:06:47.828Z,97025.91
2023-12-26T11:09:15.229Z,97024.28
2023-12-26T11:11:43.201Z,97014.91
2023-12-26T11:14:12.256Z,97011.13
2023-12-26T11:16:39.635Z,97013.31
2023-12-26T11:19:08.527Z,97009.56
2023-12-26T11:21:36.613Z,97004.22
2023-12-26T11:24:03.704Z,97006.84
2023-12-26T11:26:31.745Z,97014.06
2023-12-26T11:29:01.282Z,97005.50
2023-12-26T11:31:29.019Z,97021.25
2023-12-26T11:33:56.649Z,97021.75
2023-12-26T11:36:26.087Z,97014.22
2023-12-26T11:38:53.116Z,97010.22
2023-12-26T11:41:20.324Z,97009.44
2023-12-26T11:43:48.391Z,97012.09
2023-12-26T11:46:15.498Z,97017.69
2023-12-26T11:48:46.771Z,97012.88
2023-12-26T11:51:15.857Z,97013.91
2023-12-26T11:53:44.294Z,97006.63
2023-12-26T11:56:11.507Z,97009.88
2023-12-26T11:58:39.448Z,97009.34
2023-12-26T12:01:06.473Z,97010.94
2023-12-26T12:03:33.584Z,97009.31
2023-12-26T12:06:15.964Z,96998.09
2023-12-26T12:09:05.451Z,96986.00
2023-12-26T12:11:33.786Z,97004.75
2023-12-26T12:14:00.877Z,97003.44
2023-12-26T12:16:28.160Z,96997.81
2023-12-26T12:19:02.113Z,97001.25
2023-12-26T12:21:37.484Z,97007.41
2023-12-26T12:24:07.287Z,97018.91
2023-12-26T12:27:03.105Z,97013.56
2023-12-26T12:30:01.540Z,97015.69
2023-12-26T12:32:33.684Z,97012.44
2023-12-26T12:35:18.745Z,97022.09
2023-12-26T12:37:48.984Z,97026.88
2023-12-26T12:40:18.819Z,97015.59
2023-12-26T12:42:46.460Z,97020.97
2023-12-26T12:45:13.445Z,97028.50
2023-12-26T12:47:41.491Z,97036.28
2023-12-26T12:50:08.579Z,97045.09
2023-12-26T12:52:35.700Z,97046.72
2023-12-26T12:55:03.752Z,97051.47
2023-12-26T12:57:32.353Z,97061.38
2023-12-26T12:59:59.308Z,97052.53
2023-12-26T13:02:27.482Z,97057.31
2023-12-26T13:04:54.593Z,97061.03
2023-12-26T13:07:22.006Z,97059.13
2023-12-26T13:09:50.317Z,97050.81
2023-12-26T13:12:17.442Z,97047.03
2023-12-26T13:14:46.003Z,97041.63
2023-12-26T13:17:14.176Z,97035.19
2023-12-26T13:19:41.273Z,97037.84
2023-12-26T13:22:18.040Z,97042.13
2023-12-26T13:24:49.873Z,97042.13
2023-12-26T13:27:23.434Z,97035.94
2023-12-26T13:29:51.811Z,97038.91
2023-12-26T13:32:18.943Z,97029.53
2023-12-26T13:34:46.949Z,97027.06
2023-12-26T13:37:14.091Z,97032.41
2023-12-26T13:39:41.118Z,97026.50
2023-12-26T13:42:09.286Z,97030.78
2023-12-26T13:44:38.704Z,97041.19
2023-12-26T13:47:07.065Z,97043.56
2023-12-26T13:49:35.189Z,97045.22
2023-12-26T13:52:02.281Z,97044.66
2023-12-26T13:54:30.878Z,97050.03
2023-12-26T13:56:59.059Z,97049.44
2023-12-26T13:59:27.103Z,97048.88
2023-12-26T14:01:55.020Z,97042.00
2023-12-26T14:04:24.393Z,97050.63
2023-12-26T14:06:53.138Z,97063.44
2023-12-26T14:09:21.220Z,97058.34
2023-12-26T14:11:49.327Z,97045.44
2023-12-26T14:14:17.292Z,97044.88
2023-12-26T14:16:45.259Z,97054.78
2023-12-26T14:19:13.972Z,97064.44
2023-12-26T14:21:43.414Z,97069.47
2023-12-26T14:24:11.391Z,97074.56
2023-12-26T14:26:39.365Z,97078.88
2023-12-26T14:29:07.309Z,97079.44
2023-12-26T14:31:36.747Z,97084.28
2023-12-26T14:34:04.982Z,97081.81
2023-12-26T14:36:33.049Z,97092.84
2023-12-26T14:39:04.249Z,97088.31
2023-12-26T14:41:32.599Z,97089.09
2023-12-26T14:44:00.582Z,97105.75
2023-12-26T14:46:28.511Z,97107.38
2023-12-26T14:48:56.578Z,97106.28
2023-12-26T14:51:25.692Z,97084.84
2023-12-26T14:53:53.912Z,97090.81
2023-12-26T14:56:23.273Z,97097.19
2023-12-26T14:58:51.262Z,97092.63
2023-12-26T15:01:19.300Z,97096.69
2023-12-26T15:03:47.354Z,97105.22
2023-12-26T15:06:18.447Z,97117.59
2023-12-26T15:08:46.642Z,97125.91
2023-12-26T15:11:17.424Z,97127.78
2023-12-26T15:13:52.435Z,97133.34
2023-12-26T15:16:29.078Z,97124.00
2023-12-26T15:18:57.826Z,97113.19
2023-12-26T15:21:25.967Z,97112.09
2023-12-26T15:23:54.051Z,97120.72
2023-12-26T15:26:22.290Z,97133.09
2023-12-26T15:28:51.685Z,97137.59
2023-12-26T15:31:21.868Z,97136.69
2023-12-26T15:33:51.331Z,97130.78
2023-12-26T15:36:19.953Z,97132.59
2023-12-26T15:38:48.725Z,97145.59
2023-12-26T15:41:16.759Z,97141.13
2023-12-26T15:43:44.853Z,97142.69
2023-12-26T15:46:24.050Z,97131.84
2023-12-26T15:48:53.152Z,97122.69
2023-12-26T15:51:22.441Z,97118.94
2023-12-26T15:53:51.540Z,97125.88
2023-12-26T15:56:21.585Z,97135.50
2023-12-26T15:58:50.317Z,97146.03
2023-12-26T16:01:21.319Z,97148.72
2023-12-26T16:03:52.632Z,97154.72
2023-12-26T16:06:21.800Z,97167.56
2023-12-26T16:08:50.455Z,97176.72
2023-12-26T16:11:18.996Z,97183.22
2023-12-26T16:13:47.228Z,97179.47
2023-12-26T16:16:15.283Z,97178.41
2023-12-26T16:18:43.732Z,97171.97
2023-12-26T16:21:13.623Z,97179.19
2023-12-26T16:23:41.589Z,97175.41
2023-12-26T16:26:09.856Z,97185.38
2023-12-26T16:28:37.978Z,97193.47
2023-12-26T16:31:07.004Z,97196.16
2023-12-26T16:33:35.577Z,97189.16
2023-12-26T16:36:05.858Z,97198.84
2023-12-26T16:38:35.367Z,97208.97
2023-12-26T16:41:08.644Z,97210.59
2023-12-26T16:43:36.814Z,97219.69
2023-12-26T16:46:09.012Z,97221.53
2023-12-26T16:48:39.921Z,97222.59
2023-12-26T16:51:10.503Z,97223.44
2023-12-26T16:53:40.397Z,97220.69
2023-12-26T16:56:09.672Z,97218.28
2023-12-26T16:58:39.726Z,97227.72
2023-12-26T17:01:07.902Z,97229.88
2023-12-26T17:03:36.032Z,97230.66
2023-12-26T17:06:04.190Z,97220.78
2023-12-26T17:08:32.170Z,97227.16
2023-12-26T17:11:03.993Z,97237.94
2023-12-26T17:13:34.159Z,97244.88
2023-12-26T17:16:02.093Z,97248.56
2023-12-26T17:18:30.112Z,97252.88
2023-12-26T17:20:58.107Z,97248.06
2023-12-26T17:23:26.036Z,97251.81
2023-12-26T17:25:54.046Z,97265.50
2023-12-26T17:28:23.332Z,97267.59
2023-12-26T17:30:51.348Z,97269.50
2023-12-26T17:33:19.689Z,97267.91
2023-12-26T17:35:47.816Z,97277.00
2023-12-26T17:38:16.570Z,97282.09
2023-12-26T17:40:44.748Z,97275.41
2023-12-26T17:43:12.951Z,97270.84
2023-12-26T17:45:42.689Z,97275.41
2023-12-26T17:48:10.886Z,97271.38
2023-12-26T17:50:38.949Z,97283.94
2023-12-26T17:53:06.940Z,97281.28
2023-12-26T17:55:34.969Z,97291.66
2023-12-26T17:58:04.229Z,97289.50
2023-12-26T18:00:32.497Z,97296.25
2023-12-26T18:03:01.951Z,97294.06
2023-12-26T18:05:30.531Z,97300.28
2023-12-26T18:07:58.378Z,97302.66
2023-12-26T18:10:26.535Z,97302.16
2023-12-26T18:12:56.651Z,97303.50
2023-12-26T18:15:24.586Z,97311.28
2023-12-26T18:17:52.934Z,97309.13
2023-12-26T18:20:22.712Z,97306.97
2023-12-26T18:22:51.202Z,97310.47
2023-12-26T18:25:19.105Z,97312.34
2023-12-26T18:27:46.988Z,97307.78
2023-12-26T18:30:15.558Z,97310.19
2023-12-26T18:32:43.672Z,97313.94
2023-12-26T18:35:12.972Z,97323.84
2023-12-26T18:37:42.804Z,97333.19
2023-12-26T18:40:13.528Z,97330.50
2023-12-26T18:42:41.978Z,97330.03
2023-12-26T18:45:10.845Z,97343.41
2023-12-26T18:47:39.676Z,97338.56
2023-12-26T18:50:13.355Z,97345.53
2023-12-26T18:52:42.943Z,97343.41
2023-12-26T18:55:10.906Z,97348.19
2023-12-26T18:57:40.125Z,97352.75
2023-12-26T19:00:09.419Z,97344.47
2023-12-26T19:02:37.605Z,97345.53
2023-12-26T19:05:06.090Z,97350.88
2023-12-26T19:07:34.083Z,97361.59
2023-12-26T19:10:04.617Z,97353.53
2023-12-26T19:12:32.868Z,97362.13
2023-12-26T19:15:01.405Z,97373.91
2023-12-26T19:17:30.519Z,97366.94
2023-12-26T19:19:58.715Z,97376.03
2023-12-26T19:22:26.738Z,97378.19
2023-12-26T19:24:56.489Z,97369.34
2023-12-26T19:27:25.858Z,97371.22
2023-12-26T19:29:53.925Z,97373.91
2023-12-26T19:32:21.954Z,97374.47
2023-12-26T19:34:50.612Z,97385.69
2023-12-26T19:37:18.895Z,97379.25
2023-12-26T19:39:46.942Z,97380.34
2023-12-26T19:42:15.418Z,97370.16
2023-12-26T19:44:44.765Z,97378.19
2023-12-26T19:47:12.740Z,97387.28
2023-12-26T19:49:41.736Z,97385.97
2023-12-26T19:52:09.801Z,97387.84
2023-12-26T19:54:37.826Z,97385.69
2023-12-26T19:57:06.046Z,97392.66
2023-12-26T19:59:33.968Z,97407.91
2023-12-26T20:02:03.581Z,97400.16
2023-12-26T20:04:31.921Z,97405.25
2023-12-26T20:07:00.145Z,97405.75
2023-12-26T20:09:28.267Z,97399.34
2023-12-26T20:11:57.206Z,97400.16
2023-12-26T20:14:26.190Z,97400.69
2023-12-26T20:16:54.168Z,97399.34
2023-12-26T20:19:26.380Z,97409.78
2023-12-26T20:21:54.553Z,97408.72
2023-12-26T20:24:22.521Z,97406.59
2023-12-26T20:26:52.441Z,97400.69
2023-12-26T20:29:20.839Z,97404.16
2023-12-26T20:31:51.798Z,97410.84
2023-12-26T20:34:20.561Z,97405.50
2023-12-26T20:36:50.808Z,97415.13
2023-12-26T20:39:20.409Z,97412.97
2023-12-26T20:41:51.208Z,97414.59
2023-12-26T20:44:21.358Z,97414.59
2023-12-26T20:46:50.152Z,97411.38
2023-12-26T20:49:19.652Z,97417.28
2023-12-26T20:51:49.431Z,97419.69
2023-12-26T20:54:18.139Z,97422.09
2023-12-26T20:56:47.103Z,97426.34
2023-12-26T20:59:15.565Z,97427.97
2023-12-26T21:01:44.740Z,97430.13
2023-12-26T21:04:14.169Z,97430.38
2023-12-26T21:06:42.663Z,97435.44
2023-12-26T21:09:14.440Z,97437.59
2023-12-26T21:11:43.101Z,97443.22
2023-12-26T21:14:15.440Z,97443.47
2023-12-26T21:16:44.089Z,97447.75
2023-12-26T21:19:12.728Z,97453.66
2023-12-26T21:21:42.924Z,97445.06
2023-12-26T21:24:12.267Z,97440.78
2023-12-26T21:26:41.359Z,97445.38
2023-12-26T21:29:09.388Z,97451.50
2023-12-26T21:31:37.481Z,97448.56
2023-12-26T21:34:05.676Z,97460.06
2023-12-26T21:36:36.469Z,97466.72
2023-12-26T21:39:05.851Z,97471.31
2023-12-26T21:41:35.261Z,97478.78
2023-12-26T21:44:03.251Z,97484.94
2023-12-26T21:46:32.066Z,97485.19
2023-12-26T21:49:01.584Z,97484.69
2023-12-26T21:51:29.800Z,97482.25
2023-12-26T21:53:58.131Z,97480.91
2023-12-26T21:56:26.272Z,97482.53
2023-12-26T21:58:55.675Z,97488.41
2023-12-26T22:01:24.743Z,97488.41
2023-12-26T22:03:53.017Z,97486.25
2023-12-26T22:06:21.370Z,97500.97
2023-12-26T22:08:49.407Z,97505.50
2023-12-26T22:11:18.044Z,97507.41
2023-12-26T22:13:46.390Z,97500.16
2023-12-26T22:16:21.482Z,97510.31
2023-12-26T22:18:53.827Z,97505.25
2023-12-26T22:21:22.367Z,97521.56
2023-12-26T22:23:51.649Z,97523.69
2023-12-26T22:26:19.823Z,97521.00
2023-12-26T22:28:47.805Z,97524.19
2023-12-26T22:31:20.431Z,97513.78
2023-12-26T22:33:49.183Z,97503.66
2023-12-26T22:36:17.293Z,97509.25
2023-12-26T22:38:45.661Z,97508.69
2023-12-26T22:41:20.492Z,97504.41
2023-12-26T22:43:48.549Z,97503.34
2023-12-26T22:46:22.734Z,97506.56
2023-12-26T22:48:52.363Z,97502.78
2023-12-26T22:51:21.261Z,97491.84
2023-12-26T22:53:49.307Z,97493.19
2023-12-26T22:56:17.334Z,97490.78
2023-12-26T22:58:45.354Z,97500.69
2023-12-26T23:01:14.825Z,97490.78
2023-12-26T23:03:45.935Z,97494.78
2023-12-26T23:06:14.275Z,97500.13
2023-12-26T23:08:42.294Z,97502.78
2023-12-26T23:11:10.313Z,97512.41
2023-12-26T23:13:38.291Z,97519.41
2023-12-26T23:16:07.068Z,97527.16
2023-12-26T23:18:35.205Z,97528.78
2023-12-26T23:21:05.331Z,97533.88
2023-12-26T23:23:33.348Z,97536.03
2023-12-26T23:26:01.290Z,97533.88
2023-12-26T23:28:29.435Z,97540.28
2023-12-26T23:30:57.668Z,97541.09
2023-12-26T23:33:25.882Z,97542.94
2023-12-26T23:35:53.925Z,97536.00
2023-12-26T23:38:23.384Z,97529.59
2023-12-26T23:40:51.509Z,97534.94
2023-12-26T23:43:19.596Z,97532.75
2023-12-26T23:45:47.794Z,97537.59
2023-12-26T23:48:16.135Z,97547.19
2023-12-26T23:50:44.295Z,97542.88
2023-12-26T23:53:12.285Z,97547.97
2023-12-26T23:55:41.781Z,97542.94
2023-12-26T23:58:10.776Z,97544.53
